CheckWX is a tool to help pilots better visualize weather data.  It is not intended as a substitute for an official pre-flight weather briefing.

20:12:34 UTC

FMNN TAF
Fascene Airport
Nosy Be, Madagascar
TAF FMNN 251700Z 2518/2618 VRB04KT 9999 FEW020 SCT040 PROB30 TEMPO 2521/2603 4500 SHRA

Jun-25@
18:00 UTC

Jun-25 @ 18:00 UTC

Jun-26@
18:00 UTC

Jun-26 @ 18:00 UTC

TAF FMNN 251700Z 2518/2618 VRB04KT 9999 FEW020 SCT040
Wind
  • Variable at 4 KTS
Cloud Levels
  • Few at 2,000' AGL
  • Scattered at 4,000' AGL

Jun-25@
21:00 UTC

Jun-25 @ 21:00 UTC

Jun-26@
03:00 UTC

Jun-26 @ 03:00 UTC

PROB30 TEMPO 2521/2603 4500 SHRA

Temporary - 30% Likelihood

Temporary - 30% Likelihood during this time.

Conditions
Rain